Terminal Aerodrome Forecast
Issued by NWS

Home | Current Version | Previous Version | Text Only | Print | Product List | Glossary On
Versions: 1 2 3 4 5 6 7 8 9 10 11
310
FTUS43 KOAX 231322 AAA
TAFCDR
TAF AMD
KCDR 231322Z 2313/2412 21010KT P6SM BKN150
     FM231600 22018G28KT P6SM BKN150
     FM240100 18020KT P6SM BKN150
     FM240500 26013KT P6SM BKN100=

USA.gov is the U.S. government's official web portal to all federal, state and local government web resources and services.